createdAt,value
2023-03-26T00:01:58.040Z,97265.33
2023-03-26T00:04:27.641Z,97257.27
2023-03-26T00:06:56.087Z,97233.11
2023-03-26T00:09:23.649Z,97220.67
2023-03-26T00:11:52.675Z,97217.16
2023-03-26T00:14:21.631Z,97211.77
2023-03-26T00:16:49.376Z,97206.45
2023-03-26T00:19:23.496Z,97195.67
2023-03-26T00:21:52.126Z,97193.15
2023-03-26T00:24:19.645Z,97185.80
2023-03-26T00:26:52.788Z,97181.21
2023-03-26T00:29:20.214Z,97172.21
2023-03-26T00:31:47.958Z,97162.52
2023-03-26T00:34:17.992Z,97148.92
2023-03-26T00:36:46.557Z,97098.38
2023-03-26T00:39:17.291Z,97067.43
2023-03-26T00:41:45.062Z,97054.11
2023-03-26T00:44:12.619Z,97047.64
2023-03-26T00:46:40.842Z,97030.04
2023-03-26T00:49:10.305Z,97018.44
2023-03-26T00:51:39.045Z,97005.59
2023-03-26T00:54:07.983Z,97001.38
2023-03-26T00:56:38.332Z,96997.89
2023-03-26T00:59:06.160Z,96994.48
2023-03-26T01:01:33.675Z,96982.29
2023-03-26T01:04:30.734Z,96982.69
2023-03-26T01:07:00.379Z,96979.21
2023-03-26T01:09:32.589Z,96980.32
2023-03-26T01:12:01.685Z,96980.13
2023-03-26T01:14:29.920Z,96982.99
2023-03-26T01:16:58.298Z,96980.21
2023-03-26T01:19:30.668Z,96977.15
2023-03-26T01:21:58.667Z,96973.77
2023-03-26T01:24:26.310Z,96970.90
2023-03-26T01:26:53.753Z,96974.11
2023-03-26T01:29:28.477Z,96975.73
2023-03-26T01:32:03.418Z,96974.94
2023-03-26T01:34:41.413Z,96971.98
2023-03-26T01:37:12.862Z,96969.67
2023-03-26T01:39:48.977Z,96970.23
2023-03-26T01:42:17.201Z,96974.47
2023-03-26T01:45:04.317Z,96978.02
2023-03-26T01:47:31.292Z,96970.63
2023-03-26T01:49:58.131Z,96967.81
2023-03-26T01:52:25.971Z,96965.95
2023-03-26T01:54:54.252Z,96963.15
2023-03-26T01:57:36.077Z,96968.98
2023-03-26T02:00:06.669Z,96961.39
2023-03-26T02:02:47.741Z,96960.02
2023-03-26T02:05:17.390Z,96956.34
2023-03-26T02:07:50.846Z,96952.77
2023-03-26T02:10:21.620Z,96952.51
2023-03-26T02:12:50.991Z,96950.16
2023-03-26T02:15:18.544Z,96954.94
2023-03-26T02:17:46.764Z,96949.19
2023-03-26T02:20:14.472Z,96945.99
2023-03-26T02:22:45.314Z,96945.09
2023-03-26T02:25:16.568Z,96943.59
2023-03-26T02:27:45.246Z,96935.11
2023-03-26T02:30:16.801Z,96940.94
2023-03-26T02:32:52.543Z,96942.44
2023-03-26T02:35:21.500Z,96945.77
2023-03-26T02:37:54.731Z,96939.11
2023-03-26T02:40:22.526Z,96938.00
2023-03-26T02:42:51.692Z,96942.92
2023-03-26T02:45:20.688Z,96939.73
2023-03-26T02:48:07.644Z,96932.20
2023-03-26T02:50:57.478Z,96930.00
2023-03-26T02:53:54.328Z,96929.06
2023-03-26T02:56:35.906Z,96928.48
2023-03-26T02:59:25.401Z,96927.70
2023-03-26T03:02:13.126Z,96930.95
2023-03-26T03:04:41.450Z,96940.88
2023-03-26T03:07:09.257Z,96934.23
2023-03-26T03:09:38.250Z,96930.09
2023-03-26T03:12:41.459Z,96920.30
2023-03-26T03:15:10.439Z,96925.84
2023-03-26T03:17:38.188Z,96933.50
2023-03-26T03:20:08.945Z,96928.36
2023-03-26T03:22:41.264Z,96921.07
2023-03-26T03:25:09.146Z,96917.77
2023-03-26T03:27:38.886Z,96918.02
2023-03-26T03:30:12.592Z,96912.06
2023-03-26T03:32:46.650Z,96913.90
2023-03-26T03:35:20.843Z,96912.46
2023-03-26T03:37:50.663Z,96911.16
2023-03-26T03:40:17.876Z,96898.29
2023-03-26T03:42:48.000Z,96889.13
2023-03-26T03:45:20.582Z,96893.12
2023-03-26T03:47:58.831Z,96892.30
2023-03-26T03:50:40.270Z,96882.13
2023-03-26T03:53:20.841Z,96876.80
2023-03-26T03:56:10.291Z,96872.48
2023-03-26T03:59:01.942Z,96867.65
2023-03-26T04:01:33.426Z,96864.29
2023-03-26T04:04:05.572Z,96864.77
2023-03-26T04:06:46.317Z,96862.36
2023-03-26T04:09:14.279Z,96860.41
2023-03-26T04:11:50.855Z,96863.16
2023-03-26T04:14:40.545Z,96852.71
2023-03-26T04:17:15.048Z,96860.16
2023-03-26T04:19:44.361Z,96858.84
2023-03-26T04:22:13.143Z,96849.91
2023-03-26T04:24:54.256Z,96841.85
2023-03-26T04:27:31.305Z,96834.45
2023-03-26T04:30:10.633Z,96826.80
2023-03-26T04:32:40.005Z,96824.31
2023-03-26T04:35:10.995Z,96822.94
2023-03-26T04:37:43.963Z,96819.95
2023-03-26T04:40:15.130Z,96815.64
2023-03-26T04:43:02.401Z,96806.16
2023-03-26T04:46:02.475Z,96798.67
2023-03-26T04:48:30.882Z,96801.70
2023-03-26T04:50:58.998Z,96806.97
2023-03-26T04:53:26.680Z,96796.14
2023-03-26T04:56:18.585Z,96794.34
2023-03-26T04:59:06.022Z,96786.79
2023-03-26T05:01:37.307Z,96785.98
2023-03-26T05:04:05.646Z,96787.63
2023-03-26T05:06:33.908Z,96784.48
2023-03-26T05:09:05.767Z,96779.91
2023-03-26T05:11:58.204Z,96773.14
2023-03-26T05:14:26.082Z,96777.41
2023-03-26T05:16:58.448Z,96774.36
2023-03-26T05:19:26.832Z,96778.41
2023-03-26T05:21:56.021Z,96786.31
2023-03-26T05:24:24.401Z,96783.92
2023-03-26T05:26:52.272Z,96786.96
2023-03-26T05:29:23.836Z,96796.77
2023-03-26T05:31:53.427Z,96803.65
2023-03-26T05:34:23.856Z,96808.63
2023-03-26T05:36:51.769Z,96816.15
2023-03-26T05:39:43.551Z,96808.82
2023-03-26T05:42:45.002Z,96809.16
2023-03-26T05:45:35.855Z,96817.30
2023-03-26T05:48:18.636Z,96812.94
2023-03-26T05:50:50.282Z,96819.94
2023-03-26T05:53:20.116Z,96826.45
2023-03-26T05:56:07.451Z,96825.60
2023-03-26T05:58:55.763Z,96828.54
2023-03-26T06:01:29.154Z,96832.59
2023-03-26T06:04:16.632Z,96828.83
2023-03-26T06:06:52.414Z,96833.11
2023-03-26T06:09:19.898Z,96838.89
2023-03-26T06:11:47.754Z,96840.80
2023-03-26T06:14:16.645Z,96845.18
2023-03-26T06:17:04.486Z,96840.57
2023-03-26T06:19:50.468Z,96840.65
2023-03-26T06:22:39.735Z,96836.71
2023-03-26T06:25:18.045Z,96843.61
2023-03-26T06:28:16.485Z,96834.27
2023-03-26T06:31:13.648Z,96835.75
2023-03-26T06:33:51.159Z,96843.13
2023-03-26T06:36:19.083Z,96838.77
2023-03-26T06:38:49.673Z,96835.17
2023-03-26T06:41:17.847Z,96837.67
2023-03-26T06:44:01.084Z,96830.73
2023-03-26T06:46:38.007Z,96835.44
2023-03-26T06:49:25.081Z,96840.48
2023-03-26T06:52:12.704Z,96842.27
2023-03-26T06:54:41.153Z,96857.77
2023-03-26T06:57:34.817Z,96853.07
2023-03-26T07:00:20.636Z,96855.58
2023-03-26T07:03:08.576Z,96852.98
2023-03-26T07:05:58.117Z,96855.56
2023-03-26T07:08:47.196Z,96848.67
2023-03-26T07:11:34.961Z,96846.80
2023-03-26T07:14:03.018Z,96852.27
2023-03-26T07:17:00.281Z,96849.83
2023-03-26T07:19:57.778Z,96853.02
2023-03-26T07:22:27.251Z,96859.45
2023-03-26T07:25:07.396Z,96865.63
2023-03-26T07:28:15.092Z,96873.02
2023-03-26T07:31:00.477Z,96882.20
2023-03-26T07:34:10.539Z,96884.45
2023-03-26T07:37:13.683Z,96888.60
2023-03-26T07:40:28.281Z,96891.38
2023-03-26T07:43:18.631Z,96894.67
2023-03-26T07:46:06.562Z,96894.63
2023-03-26T07:48:53.765Z,96897.25
2023-03-26T07:51:53.807Z,96892.14
2023-03-26T07:54:48.114Z,96893.27
2023-03-26T07:58:06.752Z,96892.28
2023-03-26T08:01:19.323Z,96896.14
2023-03-26T08:03:47.287Z,96902.28
2023-03-26T08:07:09.207Z,96899.82
2023-03-26T08:10:00.928Z,96895.08
2023-03-26T08:12:58.462Z,96896.82
2023-03-26T08:15:28.992Z,96904.67
2023-03-26T08:18:01.024Z,96903.20
2023-03-26T08:20:37.964Z,96907.23
2023-03-26T08:23:17.031Z,96895.02
2023-03-26T08:25:49.462Z,96904.08
2023-03-26T08:28:17.131Z,96901.77
2023-03-26T08:30:46.688Z,96907.64
2023-03-26T08:33:16.506Z,96908.63
2023-03-26T08:35:47.690Z,96914.74
2023-03-26T08:38:18.150Z,96918.52
2023-03-26T08:41:01.243Z,96927.77
2023-03-26T08:43:47.437Z,96927.71
2023-03-26T08:46:34.303Z,96919.36
2023-03-26T08:49:18.591Z,96920.70
2023-03-26T08:52:05.797Z,96914.84
2023-03-26T08:54:52.828Z,96911.04
2023-03-26T08:57:27.771Z,96913.86
2023-03-26T08:59:56.444Z,96916.11
2023-03-26T09:02:27.314Z,96913.60
2023-03-26T09:04:55.579Z,96914.32
2023-03-26T09:07:29.670Z,96912.57
2023-03-26T09:10:02.146Z,96918.74
2023-03-26T09:12:52.608Z,96917.23
2023-03-26T09:15:20.737Z,96923.59
2023-03-26T09:18:05.406Z,96926.40
2023-03-26T09:20:39.179Z,96926.63
2023-03-26T09:23:12.973Z,96939.90
2023-03-26T09:26:04.004Z,96943.14
2023-03-26T09:29:04.118Z,96950.30
2023-03-26T09:31:51.174Z,96954.48
2023-03-26T09:34:39.181Z,96964.89
2023-03-26T09:37:07.247Z,96970.77
2023-03-26T09:39:37.805Z,96979.66
2023-03-26T09:42:11.375Z,96981.94
2023-03-26T09:44:56.750Z,96991.38
2023-03-26T09:47:31.945Z,96995.31
2023-03-26T09:50:12.566Z,96990.96
2023-03-26T09:52:43.472Z,96988.93
2023-03-26T09:55:19.912Z,96986.92
2023-03-26T09:57:53.103Z,96987.97
2023-03-26T10:00:36.331Z,96980.27
2023-03-26T10:03:05.177Z,96979.95
2023-03-26T10:05:52.797Z,96998.46
2023-03-26T10:08:23.218Z,96998.11
2023-03-26T10:11:05.012Z,97009.56
2023-03-26T10:13:36.466Z,97005.48
2023-03-26T10:16:23.707Z,97007.94
2023-03-26T10:19:04.090Z,97013.27
2023-03-26T10:21:50.958Z,97007.51
2023-03-26T10:24:35.969Z,97002.45
2023-03-26T10:27:08.616Z,97006.02
2023-03-26T10:29:58.079Z,97005.72
2023-03-26T10:32:46.389Z,97008.52
2023-03-26T10:35:25.186Z,97000.73
2023-03-26T10:38:12.660Z,96995.08
2023-03-26T10:40:59.376Z,96991.69
2023-03-26T10:43:27.969Z,96989.80
2023-03-26T10:45:55.637Z,96991.95
2023-03-26T10:48:33.116Z,96992.65
2023-03-26T10:51:05.994Z,96991.29
2023-03-26T10:53:35.472Z,96999.84
2023-03-26T10:56:21.896Z,97005.81
2023-03-26T10:58:50.394Z,96993.51
2023-03-26T11:01:24.851Z,96993.13
2023-03-26T11:03:53.794Z,96991.77
2023-03-26T11:06:40.848Z,96997.90
2023-03-26T11:09:19.014Z,96996.77
2023-03-26T11:11:58.767Z,97002.04
2023-03-26T11:14:41.885Z,97013.08
2023-03-26T11:17:40.260Z,97009.01
2023-03-26T11:20:16.941Z,97006.55
2023-03-26T11:22:48.287Z,97006.14
2023-03-26T11:25:37.426Z,97016.31
2023-03-26T11:28:15.995Z,97017.94
2023-03-26T11:30:55.144Z,97014.13
2023-03-26T11:33:27.267Z,97010.42
2023-03-26T11:36:02.329Z,97008.93
2023-03-26T11:38:38.985Z,97017.63
2023-03-26T11:41:27.908Z,97022.73
2023-03-26T11:44:10.754Z,97024.11
2023-03-26T11:46:40.833Z,97027.63
2023-03-26T11:49:11.195Z,97029.37
2023-03-26T11:51:39.169Z,97038.11
2023-03-26T11:54:07.648Z,97039.23
2023-03-26T11:56:37.805Z,97038.84
2023-03-26T11:59:21.179Z,97038.57
2023-03-26T12:01:59.308Z,97041.54
2023-03-26T12:04:30.036Z,97038.34
2023-03-26T12:07:07.438Z,97041.30
2023-03-26T12:09:34.975Z,97040.41
2023-03-26T12:12:04.493Z,97040.61
2023-03-26T12:14:33.885Z,97042.64
2023-03-26T12:17:06.271Z,97048.80
2023-03-26T12:19:35.256Z,97056.23
2023-03-26T12:22:02.701Z,97052.95
2023-03-26T12:24:30.362Z,97057.22
2023-03-26T12:27:02.753Z,97059.41
2023-03-26T12:29:34.089Z,97052.05
2023-03-26T12:32:05.640Z,97059.98
2023-03-26T12:34:37.728Z,97052.02
2023-03-26T12:37:05.973Z,97045.90
2023-03-26T12:40:07.602Z,97049.89
2023-03-26T12:44:44.367Z,97050.52
2023-03-26T12:45:14.216Z,97046.05
2023-03-26T12:47:58.584Z,97041.43
2023-03-26T12:50:33.976Z,97044.70
2023-03-26T12:53:06.797Z,97041.59
2023-03-26T12:55:58.287Z,97042.70
2023-03-26T12:58:54.648Z,97040.08
2023-03-26T13:01:36.975Z,97034.52
2023-03-26T13:04:14.549Z,97029.23
2023-03-26T13:07:00.382Z,97029.71
2023-03-26T13:09:33.428Z,97025.45
2023-03-26T13:12:15.019Z,97023.02
2023-03-26T13:15:18.516Z,97019.91
2023-03-26T13:17:55.821Z,97021.52
2023-03-26T13:20:27.505Z,97012.94
2023-03-26T13:22:57.780Z,97014.84
2023-03-26T13:25:28.416Z,97013.09
2023-03-26T13:27:59.557Z,97013.45
2023-03-26T13:30:37.116Z,97016.15
2023-03-26T13:33:23.461Z,97015.36
2023-03-26T13:35:56.411Z,97013.08
2023-03-26T13:38:31.369Z,97014.31
2023-03-26T13:40:59.026Z,97008.83
2023-03-26T13:43:26.869Z,97012.45
2023-03-26T13:45:56.426Z,97010.70
2023-03-26T13:48:26.619Z,97010.98
2023-03-26T13:50:59.304Z,97003.52
2023-03-26T13:53:38.093Z,96997.73
2023-03-26T13:56:06.913Z,96998.93
2023-03-26T13:58:50.136Z,96999.55
2023-03-26T14:01:19.389Z,97002.40
2023-03-26T14:03:55.085Z,97009.67
2023-03-26T14:06:22.859Z,97016.14
2023-03-26T14:09:11.716Z,97012.33
2023-03-26T14:11:39.989Z,97009.63
2023-03-26T14:14:12.153Z,97007.48
2023-03-26T14:16:45.846Z,97005.66
2023-03-26T14:19:21.401Z,97008.10
2023-03-26T14:21:49.678Z,97006.69
2023-03-26T14:24:17.432Z,97007.19
2023-03-26T14:26:44.996Z,97001.02
2023-03-26T14:29:32.419Z,96995.75
2023-03-26T14:32:00.498Z,96992.86
2023-03-26T14:34:50.788Z,96988.09
2023-03-26T14:37:37.385Z,96979.73
2023-03-26T14:40:23.687Z,96977.05
2023-03-26T14:43:10.285Z,96976.64
2023-03-26T14:45:39.388Z,96978.42
2023-03-26T14:48:13.737Z,96978.45
2023-03-26T14:51:00.158Z,96982.11
2023-03-26T14:53:29.309Z,96982.35
2023-03-26T14:56:21.551Z,96981.67
2023-03-26T14:58:54.529Z,96979.98
2023-03-26T15:01:22.541Z,96973.59
2023-03-26T15:04:14.017Z,96970.10
2023-03-26T15:06:52.567Z,96969.80
2023-03-26T15:09:22.960Z,96965.19
2023-03-26T15:12:12.175Z,96962.70
2023-03-26T15:15:00.581Z,96959.33
2023-03-26T15:17:46.951Z,96956.01
2023-03-26T15:20:39.500Z,96947.02
2023-03-26T15:23:35.749Z,96942.83
2023-03-26T15:26:04.754Z,96941.38
2023-03-26T15:28:35.385Z,96939.26
2023-03-26T15:31:22.038Z,96938.27
2023-03-26T15:34:08.376Z,96936.36
2023-03-26T15:36:38.904Z,96934.20
2023-03-26T15:39:25.742Z,96933.83
2023-03-26T15:42:03.637Z,96932.88
2023-03-26T15:44:50.809Z,96930.75
2023-03-26T15:47:36.159Z,96928.33
2023-03-26T15:50:15.341Z,96925.36
2023-03-26T15:52:48.897Z,96922.15
2023-03-26T15:55:20.647Z,96919.83
2023-03-26T15:58:07.617Z,96917.36
2023-03-26T16:00:56.547Z,96917.09
2023-03-26T16:03:31.470Z,96915.57
2023-03-26T16:06:13.860Z,96918.00
2023-03-26T16:08:47.020Z,96918.45
2023-03-26T16:11:16.210Z,96914.44
2023-03-26T16:13:50.573Z,96911.39
2023-03-26T16:16:26.674Z,96910.64
2023-03-26T16:19:26.295Z,96908.50
2023-03-26T16:22:00.192Z,96905.93
2023-03-26T16:24:28.980Z,96907.13
2023-03-26T16:27:04.986Z,96909.35
2023-03-26T16:29:34.138Z,96908.66
2023-03-26T16:32:09.222Z,96906.54
2023-03-26T16:34:41.696Z,96909.65
2023-03-26T16:37:29.790Z,96909.41
2023-03-26T16:40:33.203Z,96907.62
2023-03-26T16:43:00.868Z,96909.80
2023-03-26T16:45:50.630Z,96908.67
2023-03-26T16:48:35.595Z,96913.61
2023-03-26T16:51:16.602Z,96910.23
2023-03-26T16:53:48.018Z,96910.01
2023-03-26T16:56:34.841Z,96905.16
2023-03-26T16:59:26.437Z,96900.53
2023-03-26T17:01:57.087Z,96901.67
2023-03-26T17:04:27.404Z,96899.80
2023-03-26T17:07:03.872Z,96900.19
2023-03-26T17:09:52.017Z,96900.42
2023-03-26T17:12:40.890Z,96897.34
2023-03-26T17:15:12.434Z,96898.27
2023-03-26T17:17:46.978Z,96895.83
2023-03-26T17:20:47.583Z,96894.23
2023-03-26T17:23:27.268Z,96890.11
2023-03-26T17:25:55.499Z,96887.41
2023-03-26T17:28:46.040Z,96884.23
2023-03-26T17:31:17.329Z,96882.75
2023-03-26T17:33:48.353Z,96881.95
2023-03-26T17:36:22.802Z,96875.89
2023-03-26T17:38:51.287Z,96873.17
2023-03-26T17:41:39.789Z,96870.58
2023-03-26T17:44:27.262Z,96865.73
2023-03-26T17:46:55.438Z,96866.14
2023-03-26T17:49:26.785Z,96860.26
2023-03-26T17:51:57.735Z,96856.09
2023-03-26T17:54:46.445Z,96852.04
2023-03-26T17:57:30.378Z,96847.91
2023-03-26T17:59:58.282Z,96843.62
2023-03-26T18:02:41.968Z,96847.63
2023-03-26T18:05:10.304Z,96844.91
2023-03-26T18:07:38.372Z,96840.06
2023-03-26T18:10:28.795Z,96838.59
2023-03-26T18:13:03.393Z,96832.72
2023-03-26T18:15:44.928Z,96832.02
2023-03-26T18:18:20.224Z,96832.48
2023-03-26T18:20:49.322Z,96828.37
2023-03-26T18:23:22.813Z,96827.11
2023-03-26T18:26:08.195Z,96823.38
2023-03-26T18:29:04.576Z,96818.84
2023-03-26T18:31:32.316Z,96812.19
2023-03-26T18:34:04.894Z,96821.48
2023-03-26T18:36:32.121Z,96815.58
2023-03-26T18:39:01.719Z,96818.10
2023-03-26T18:41:32.970Z,96811.51
2023-03-26T18:44:04.697Z,96811.66
2023-03-26T18:46:33.100Z,96804.80
2023-03-26T18:49:00.871Z,96802.21
2023-03-26T18:51:30.704Z,96800.80
2023-03-26T18:53:59.774Z,96793.73
2023-03-26T18:56:31.983Z,96789.20
2023-03-26T18:59:02.055Z,96786.16
2023-03-26T19:01:30.391Z,96788.18
2023-03-26T19:04:03.350Z,96789.88
2023-03-26T19:06:35.490Z,96786.80
2023-03-26T19:09:09.244Z,96783.19
2023-03-26T19:11:43.806Z,96773.28
2023-03-26T19:14:17.087Z,96769.59
2023-03-26T19:16:45.218Z,96770.73
2023-03-26T19:19:17.143Z,96771.07
2023-03-26T19:21:44.837Z,96764.44
2023-03-26T19:24:17.475Z,96764.27
2023-03-26T19:26:46.179Z,96758.91
2023-03-26T19:29:13.985Z,96760.89
2023-03-26T19:31:42.035Z,96762.47
2023-03-26T19:34:09.087Z,96759.60
2023-03-26T19:36:36.605Z,96762.73
2023-03-26T19:39:10.050Z,96758.91
2023-03-26T19:41:42.077Z,96754.95
2023-03-26T19:44:12.452Z,96755.68
2023-03-26T19:46:53.632Z,96752.86
2023-03-26T19:49:32.408Z,96743.48
2023-03-26T19:52:16.865Z,96747.11
2023-03-26T19:55:05.177Z,96744.73
2023-03-26T19:57:35.929Z,96741.67
2023-03-26T20:00:09.120Z,96743.79
2023-03-26T20:02:42.548Z,96745.48
2023-03-26T20:05:15.483Z,96742.64
2023-03-26T20:07:49.943Z,96744.13
2023-03-26T20:10:17.391Z,96744.48
2023-03-26T20:12:45.246Z,96744.39
2023-03-26T20:15:19.474Z,96745.48
2023-03-26T20:17:54.038Z,96737.39
2023-03-26T20:20:24.252Z,96738.33
2023-03-26T20:22:53.469Z,96729.89
2023-03-26T20:25:21.886Z,96725.52
2023-03-26T20:27:52.617Z,96723.46
2023-03-26T20:30:37.039Z,96718.87
2023-03-26T20:33:14.000Z,96706.42
2023-03-26T20:35:43.035Z,96705.36
2023-03-26T20:38:10.695Z,96700.35
2023-03-26T20:40:38.321Z,96700.19
2023-03-26T20:43:09.410Z,96691.81
2023-03-26T20:45:38.394Z,96686.00
2023-03-26T20:48:05.694Z,96675.16
2023-03-26T20:50:35.919Z,96674.27
2023-03-26T20:53:06.091Z,96674.58
2023-03-26T20:55:35.391Z,96667.62
2023-03-26T20:58:04.084Z,96663.35
2023-03-26T21:00:34.257Z,96663.40
2023-03-26T21:03:01.918Z,96665.88
2023-03-26T21:05:30.354Z,96659.91
2023-03-26T21:07:58.198Z,96661.65
2023-03-26T21:10:26.579Z,96656.02
2023-03-26T21:12:58.208Z,96653.85
2023-03-26T21:15:29.137Z,96648.00
2023-03-26T21:17:57.900Z,96645.64
2023-03-26T21:20:27.578Z,96640.38
2023-03-26T21:23:11.095Z,96636.20
2023-03-26T21:25:52.587Z,96632.02
2023-03-26T21:28:29.068Z,96626.82
2023-03-26T21:31:00.299Z,96626.70
2023-03-26T21:33:28.399Z,96626.30
2023-03-26T21:35:58.730Z,96624.28
2023-03-26T21:38:27.068Z,96621.70
2023-03-26T21:40:58.823Z,96618.29
2023-03-26T21:43:27.921Z,96607.99
2023-03-26T21:45:55.324Z,96613.48
2023-03-26T21:48:23.451Z,96606.34
2023-03-26T21:50:51.520Z,96604.31
2023-03-26T21:53:21.890Z,96601.48
2023-03-26T21:55:56.877Z,96597.15
2023-03-26T21:58:34.789Z,96589.64
2023-03-26T22:01:20.993Z,96583.35
2023-03-26T22:03:54.087Z,96581.82
2023-03-26T22:06:42.556Z,96578.61
2023-03-26T22:09:11.412Z,96569.91
2023-03-26T22:11:41.113Z,96572.08
2023-03-26T22:14:08.365Z,96568.39
2023-03-26T22:16:36.027Z,96568.17
2023-03-26T22:19:03.485Z,96569.40
2023-03-26T22:21:33.918Z,96569.08
2023-03-26T22:24:04.093Z,96564.49
2023-03-26T22:26:37.333Z,96561.30
2023-03-26T22:29:04.858Z,96562.77
2023-03-26T22:31:32.425Z,96565.03
2023-03-26T22:34:00.210Z,96557.66
2023-03-26T22:36:27.801Z,96559.20
2023-03-26T22:39:01.364Z,96554.83
2023-03-26T22:41:29.752Z,96557.46
2023-03-26T22:43:59.699Z,96557.89
2023-03-26T22:46:35.810Z,96553.08
2023-03-26T22:49:03.685Z,96559.31
2023-03-26T22:51:34.326Z,96557.20
2023-03-26T22:54:02.416Z,96558.04
2023-03-26T22:56:30.149Z,96556.34
2023-03-26T22:58:57.505Z,96556.36
2023-03-26T23:01:25.719Z,96559.25
2023-03-26T23:03:53.687Z,96557.24
2023-03-26T23:06:21.212Z,96563.62
2023-03-26T23:08:48.772Z,96559.05
2023-03-26T23:11:17.186Z,96558.24
2023-03-26T23:13:47.259Z,96553.92
2023-03-26T23:16:15.795Z,96553.39
2023-03-26T23:18:46.107Z,96549.87
2023-03-26T23:21:14.344Z,96551.55
2023-03-26T23:23:42.212Z,96548.17
2023-03-26T23:26:11.098Z,96544.65
2023-03-26T23:28:38.969Z,96544.96
2023-03-26T23:31:07.393Z,96547.80
2023-03-26T23:33:36.133Z,96547.23
2023-03-26T23:36:08.420Z,96545.17
2023-03-26T23:38:44.301Z,96534.48
2023-03-26T23:41:14.477Z,96531.89
2023-03-26T23:43:53.963Z,96529.79
2023-03-26T23:46:29.609Z,96526.66
2023-03-26T23:49:01.729Z,96523.34
2023-03-26T23:51:32.479Z,96518.42
2023-03-26T23:54:01.045Z,96517.00
2023-03-26T23:56:31.995Z,96513.56
2023-03-26T23:59:00.292Z,96511.86
